sensor_id;sensor_type;location;lat;lon;timestamp;P1;durP1;ratioP1;P2;durP2;ratioP2
12776;SDS011;6452;41.572;23.732;2023-12-14T00:01:36;73.28;;;48.13;;
12776;SDS011;6452;41.572;23.732;2023-12-14T00:04:03;71.70;;;47.17;;
12776;SDS011;6452;41.572;23.732;2023-12-14T00:06:30;71.47;;;46.55;;
12776;SDS011;6452;41.572;23.732;2023-12-14T00:08:56;71.97;;;46.25;;
12776;SDS011;6452;41.572;23.732;2023-12-14T00:11:23;68.32;;;43.55;;
12776;SDS011;6452;41.572;23.732;2023-12-14T00:13:49;69.00;;;44.40;;
12776;SDS011;6452;41.572;23.732;2023-12-14T00:16:15;64.78;;;41.95;;
12776;SDS011;6452;41.572;23.732;2023-12-14T00:18:41;62.83;;;42.20;;
12776;SDS011;6452;41.572;23.732;2023-12-14T00:21:07;60.70;;;41.40;;
12776;SDS011;6452;41.572;23.732;2023-12-14T00:23:34;66.40;;;43.30;;
12776;SDS011;6452;41.572;23.732;2023-12-14T00:26:00;59.38;;;39.67;;
12776;SDS011;6452;41.572;23.732;2023-12-14T00:28:26;63.63;;;41.95;;
12776;SDS011;6452;41.572;23.732;2023-12-14T00:30:53;62.47;;;40.58;;
12776;SDS011;6452;41.572;23.732;2023-12-14T00:33:20;55.00;;;38.22;;
12776;SDS011;6452;41.572;23.732;2023-12-14T00:35:50;59.42;;;38.97;;
12776;SDS011;6452;41.572;23.732;2023-12-14T00:38:17;57.15;;;39.50;;
12776;SDS011;6452;41.572;23.732;2023-12-14T00:40:43;55.58;;;38.55;;
12776;SDS011;6452;41.572;23.732;2023-12-14T00:43:09;58.72;;;39.00;;
12776;SDS011;6452;41.572;23.732;2023-12-14T00:45:36;55.55;;;38.17;;
12776;SDS011;6452;41.572;23.732;2023-12-14T00:48:02;56.95;;;36.70;;
12776;SDS011;6452;41.572;23.732;2023-12-14T00:50:29;55.00;;;36.70;;
12776;SDS011;6452;41.572;23.732;2023-12-14T00:52:55;50.53;;;35.03;;
12776;SDS011;6452;41.572;23.732;2023-12-14T00:55:21;50.60;;;33.38;;
12776;SDS011;6452;41.572;23.732;2023-12-14T00:57:48;47.05;;;32.28;;
12776;SDS011;6452;41.572;23.732;2023-12-14T01:00:14;40.15;;;28.13;;
12776;SDS011;6452;41.572;23.732;2023-12-14T01:02:40;38.92;;;27.65;;
12776;SDS011;6452;41.572;23.732;2023-12-14T01:05:06;45.13;;;28.25;;
12776;SDS011;6452;41.572;23.732;2023-12-14T01:07:32;37.05;;;27.48;;
12776;SDS011;6452;41.572;23.732;2023-12-14T01:09:59;38.80;;;25.83;;
12776;SDS011;6452;41.572;23.732;2023-12-14T01:12:25;32.90;;;23.63;;
12776;SDS011;6452;41.572;23.732;2023-12-14T01:14:51;35.05;;;24.48;;
12776;SDS011;6452;41.572;23.732;2023-12-14T01:17:17;35.17;;;23.75;;
12776;SDS011;6452;41.572;23.732;2023-12-14T01:19:44;30.55;;;21.80;;
12776;SDS011;6452;41.572;23.732;2023-12-14T01:22:10;34.30;;;23.42;;
12776;SDS011;6452;41.572;23.732;2023-12-14T01:24:36;29.60;;;22.52;;
12776;SDS011;6452;41.572;23.732;2023-12-14T01:27:03;33.28;;;21.60;;
12776;SDS011;6452;41.572;23.732;2023-12-14T01:29:28;31.25;;;21.58;;
12776;SDS011;6452;41.572;23.732;2023-12-14T01:31:55;28.70;;;19.75;;
12776;SDS011;6452;41.572;23.732;2023-12-14T01:34:21;26.20;;;18.33;;
12776;SDS011;6452;41.572;23.732;2023-12-14T01:36:47;23.73;;;17.35;;
12776;SDS011;6452;41.572;23.732;2023-12-14T01:39:13;25.15;;;18.25;;
12776;SDS011;6452;41.572;23.732;2023-12-14T01:41:40;22.67;;;17.73;;
12776;SDS011;6452;41.572;23.732;2023-12-14T01:44:06;25.92;;;18.25;;
12776;SDS011;6452;41.572;23.732;2023-12-14T01:46:32;23.90;;;18.27;;
12776;SDS011;6452;41.572;23.732;2023-12-14T01:48:59;26.00;;;17.90;;
12776;SDS011;6452;41.572;23.732;2023-12-14T01:51:25;28.70;;;19.80;;
12776;SDS011;6452;41.572;23.732;2023-12-14T01:53:52;30.25;;;19.88;;
12776;SDS011;6452;41.572;23.732;2023-12-14T01:56:18;33.47;;;20.05;;
12776;SDS011;6452;41.572;23.732;2023-12-14T01:58:44;27.25;;;19.92;;
12776;SDS011;6452;41.572;23.732;2023-12-14T02:03:36;27.42;;;19.67;;
12776;SDS011;6452;41.572;23.732;2023-12-14T02:06:09;31.55;;;24.00;;
12776;SDS011;6452;41.572;23.732;2023-12-14T02:08:35;36.28;;;25.30;;
12776;SDS011;6452;41.572;23.732;2023-12-14T02:11:02;32.78;;;23.42;;
12776;SDS011;6452;41.572;23.732;2023-12-14T02:13:29;41.55;;;27.48;;
12776;SDS011;6452;41.572;23.732;2023-12-14T02:15:55;37.63;;;26.48;;
12776;SDS011;6452;41.572;23.732;2023-12-14T02:18:21;82.45;;;49.00;;
12776;SDS011;6452;41.572;23.732;2023-12-14T02:20:48;79.30;;;48.03;;
12776;SDS011;6452;41.572;23.732;2023-12-14T02:23:14;45.75;;;30.55;;
12776;SDS011;6452;41.572;23.732;2023-12-14T02:25:40;42.92;;;29.70;;
12776;SDS011;6452;41.572;23.732;2023-12-14T02:28:07;49.72;;;31.48;;
12776;SDS011;6452;41.572;23.732;2023-12-14T02:30:33;48.53;;;31.92;;
12776;SDS011;6452;41.572;23.732;2023-12-14T02:32:59;47.97;;;30.52;;
12776;SDS011;6452;41.572;23.732;2023-12-14T02:35:25;48.50;;;30.30;;
12776;SDS011;6452;41.572;23.732;2023-12-14T02:37:51;40.47;;;28.38;;
12776;SDS011;6452;41.572;23.732;2023-12-14T02:40:17;39.80;;;29.70;;
12776;SDS011;6452;41.572;23.732;2023-12-14T02:42:44;43.28;;;30.15;;
12776;SDS011;6452;41.572;23.732;2023-12-14T02:45:10;43.70;;;28.92;;
12776;SDS011;6452;41.572;23.732;2023-12-14T02:47:37;48.55;;;32.63;;
12776;SDS011;6452;41.572;23.732;2023-12-14T02:50:03;42.75;;;29.95;;
12776;SDS011;6452;41.572;23.732;2023-12-14T02:52:29;43.92;;;30.92;;
12776;SDS011;6452;41.572;23.732;2023-12-14T02:54:55;45.28;;;31.02;;
12776;SDS011;6452;41.572;23.732;2023-12-14T02:57:22;62.25;;;41.25;;
12776;SDS011;6452;41.572;23.732;2023-12-14T02:59:48;59.05;;;39.30;;
12776;SDS011;6452;41.572;23.732;2023-12-14T03:02:14;55.00;;;35.25;;
12776;SDS011;6452;41.572;23.732;2023-12-14T03:04:40;57.13;;;38.15;;
12776;SDS011;6452;41.572;23.732;2023-12-14T03:07:07;90.90;;;57.50;;
12776;SDS011;6452;41.572;23.732;2023-12-14T03:09:33;69.32;;;44.70;;
12776;SDS011;6452;41.572;23.732;2023-12-14T03:12:02;64.50;;;45.50;;
12776;SDS011;6452;41.572;23.732;2023-12-14T03:14:32;76.03;;;45.88;;
12776;SDS011;6452;41.572;23.732;2023-12-14T03:16:58;60.63;;;37.90;;
12776;SDS011;6452;41.572;23.732;2023-12-14T03:19:24;52.78;;;34.67;;
12776;SDS011;6452;41.572;23.732;2023-12-14T03:21:50;51.85;;;33.22;;
12776;SDS011;6452;41.572;23.732;2023-12-14T03:24:17;54.40;;;34.25;;
12776;SDS011;6452;41.572;23.732;2023-12-14T03:26:43;81.95;;;39.00;;
12776;SDS011;6452;41.572;23.732;2023-12-14T03:29:09;72.53;;;33.78;;
12776;SDS011;6452;41.572;23.732;2023-12-14T03:31:36;93.40;;;35.40;;
12776;SDS011;6452;41.572;23.732;2023-12-14T03:34:02;104.40;;;34.60;;
12776;SDS011;6452;41.572;23.732;2023-12-14T03:36:28;88.60;;;34.83;;
12776;SDS011;6452;41.572;23.732;2023-12-14T03:38:54;76.47;;;33.10;;
12776;SDS011;6452;41.572;23.732;2023-12-14T03:41:20;93.03;;;34.88;;
12776;SDS011;6452;41.572;23.732;2023-12-14T03:43:47;66.13;;;33.80;;
12776;SDS011;6452;41.572;23.732;2023-12-14T03:46:13;89.50;;;39.85;;
12776;SDS011;6452;41.572;23.732;2023-12-14T03:48:39;56.75;;;35.05;;
12776;SDS011;6452;41.572;23.732;2023-12-14T03:51:06;61.45;;;33.40;;
12776;SDS011;6452;41.572;23.732;2023-12-14T03:53:32;54.17;;;34.17;;
12776;SDS011;6452;41.572;23.732;2023-12-14T03:55:58;52.67;;;31.88;;
12776;SDS011;6452;41.572;23.732;2023-12-14T03:58:25;81.95;;;32.55;;
12776;SDS011;6452;41.572;23.732;2023-12-14T04:00:51;64.03;;;30.40;;
12776;SDS011;6452;41.572;23.732;2023-12-14T04:03:18;77.05;;;39.67;;
12776;SDS011;6452;41.572;23.732;2023-12-14T04:05:44;115.55;;;43.95;;
12776;SDS011;6452;41.572;23.732;2023-12-14T04:08:10;70.63;;;38.20;;
12776;SDS011;6452;41.572;23.732;2023-12-14T04:10:36;98.78;;;35.78;;
12776;SDS011;6452;41.572;23.732;2023-12-14T04:13:02;67.75;;;36.25;;
12776;SDS011;6452;41.572;23.732;2023-12-14T04:15:28;95.60;;;35.22;;
12776;SDS011;6452;41.572;23.732;2023-12-14T04:17:55;82.85;;;32.40;;
12776;SDS011;6452;41.572;23.732;2023-12-14T04:20:21;89.68;;;29.63;;
12776;SDS011;6452;41.572;23.732;2023-12-14T04:22:48;65.13;;;26.13;;
12776;SDS011;6452;41.572;23.732;2023-12-14T04:25:14;76.30;;;26.45;;
12776;SDS011;6452;41.572;23.732;2023-12-14T04:27:39;88.03;;;28.52;;
12776;SDS011;6452;41.572;23.732;2023-12-14T04:30:06;105.38;;;31.08;;
12776;SDS011;6452;41.572;23.732;2023-12-14T04:32:36;101.28;;;32.33;;
12776;SDS011;6452;41.572;23.732;2023-12-14T04:35:02;77.53;;;36.10;;
12776;SDS011;6452;41.572;23.732;2023-12-14T04:37:28;72.57;;;38.80;;
12776;SDS011;6452;41.572;23.732;2023-12-14T04:39:55;60.35;;;38.40;;
12776;SDS011;6452;41.572;23.732;2023-12-14T04:42:22;75.63;;;39.80;;
12776;SDS011;6452;41.572;23.732;2023-12-14T04:44:48;65.55;;;38.10;;
12776;SDS011;6452;41.572;23.732;2023-12-14T04:47:14;79.57;;;39.75;;
12776;SDS011;6452;41.572;23.732;2023-12-14T04:49:40;117.18;;;44.97;;
12776;SDS011;6452;41.572;23.732;2023-12-14T04:52:07;117.50;;;45.45;;
12776;SDS011;6452;41.572;23.732;2023-12-14T04:54:34;130.55;;;43.67;;
12776;SDS011;6452;41.572;23.732;2023-12-14T04:57:03;108.15;;;45.67;;
12776;SDS011;6452;41.572;23.732;2023-12-14T04:59:29;94.40;;;49.22;;
12776;SDS011;6452;41.572;23.732;2023-12-14T05:01:55;114.07;;;51.65;;
12776;SDS011;6452;41.572;23.732;2023-12-14T05:04:21;102.90;;;53.55;;
12776;SDS011;6452;41.572;23.732;2023-12-14T05:06:47;128.93;;;57.45;;
12776;SDS011;6452;41.572;23.732;2023-12-14T05:09:14;108.50;;;53.40;;
12776;SDS011;6452;41.572;23.732;2023-12-14T05:11:40;133.88;;;54.38;;
12776;SDS011;6452;41.572;23.732;2023-12-14T05:14:06;188.40;;;63.78;;
12776;SDS011;6452;41.572;23.732;2023-12-14T05:16:32;120.95;;;60.78;;
12776;SDS011;6452;41.572;23.732;2023-12-14T05:18:58;133.02;;;59.90;;
12776;SDS011;6452;41.572;23.732;2023-12-14T05:21:24;108.63;;;50.72;;
12776;SDS011;6452;41.572;23.732;2023-12-14T05:23:51;130.77;;;44.63;;
12776;SDS011;6452;41.572;23.732;2023-12-14T05:26:17;84.65;;;40.97;;
12776;SDS011;6452;41.572;23.732;2023-12-14T05:28:44;86.65;;;35.83;;
12776;SDS011;6452;41.572;23.732;2023-12-14T05:31:11;68.82;;;34.17;;
12776;SDS011;6452;41.572;23.732;2023-12-14T05:33:37;64.90;;;34.00;;
12776;SDS011;6452;41.572;23.732;2023-12-14T05:36:03;105.93;;;34.25;;
12776;SDS011;6452;41.572;23.732;2023-12-14T05:38:40;104.97;;;35.40;;
12776;SDS011;6452;41.572;23.732;2023-12-14T05:41:07;122.25;;;37.03;;
12776;SDS011;6452;41.572;23.732;2023-12-14T05:43:33;148.77;;;32.28;;
12776;SDS011;6452;41.572;23.732;2023-12-14T05:45:59;132.70;;;34.20;;
12776;SDS011;6452;41.572;23.732;2023-12-14T05:48:25;76.85;;;31.02;;
12776;SDS011;6452;41.572;23.732;2023-12-14T05:50:56;88.90;;;32.67;;
12776;SDS011;6452;41.572;23.732;2023-12-14T05:53:22;178.23;;;39.65;;
12776;SDS011;6452;41.572;23.732;2023-12-14T05:55:48;234.07;;;38.28;;
12776;SDS011;6452;41.572;23.732;2023-12-14T05:58:15;203.82;;;38.35;;
12776;SDS011;6452;41.572;23.732;2023-12-14T06:00:42;218.77;;;45.08;;
12776;SDS011;6452;41.572;23.732;2023-12-14T06:03:08;245.63;;;41.05;;
12776;SDS011;6452;41.572;23.732;2023-12-14T06:05:34;200.13;;;38.75;;
12776;SDS011;6452;41.572;23.732;2023-12-14T06:08:01;235.00;;;33.08;;
12776;SDS011;6452;41.572;23.732;2023-12-14T06:10:27;250.10;;;31.75;;
12776;SDS011;6452;41.572;23.732;2023-12-14T06:12:54;208.48;;;32.30;;
12776;SDS011;6452;41.572;23.732;2023-12-14T06:15:20;184.93;;;29.38;;
12776;SDS011;6452;41.572;23.732;2023-12-14T06:17:47;129.57;;;28.45;;
12776;SDS011;6452;41.572;23.732;2023-12-14T06:20:13;238.02;;;29.85;;
12776;SDS011;6452;41.572;23.732;2023-12-14T06:22:39;247.38;;;33.63;;
12776;SDS011;6452;41.572;23.732;2023-12-14T06:25:06;224.80;;;31.48;;
12776;SDS011;6452;41.572;23.732;2023-12-14T06:27:32;181.52;;;35.45;;
12776;SDS011;6452;41.572;23.732;2023-12-14T06:29:59;112.10;;;33.20;;
12776;SDS011;6452;41.572;23.732;2023-12-14T06:32:25;123.40;;;35.45;;
12776;SDS011;6452;41.572;23.732;2023-12-14T06:34:52;141.15;;;38.55;;
12776;SDS011;6452;41.572;23.732;2023-12-14T06:37:19;124.70;;;36.83;;
12776;SDS011;6452;41.572;23.732;2023-12-14T06:39:44;131.80;;;38.80;;
12776;SDS011;6452;41.572;23.732;2023-12-14T06:42:12;157.23;;;36.35;;
12776;SDS011;6452;41.572;23.732;2023-12-14T06:44:38;156.52;;;43.40;;
12776;SDS011;6452;41.572;23.732;2023-12-14T06:47:04;135.35;;;39.50;;
12776;SDS011;6452;41.572;23.732;2023-12-14T06:49:31;82.10;;;37.55;;
12776;SDS011;6452;41.572;23.732;2023-12-14T06:51:58;65.78;;;35.08;;
12776;SDS011;6452;41.572;23.732;2023-12-14T06:54:25;118.55;;;39.97;;
12776;SDS011;6452;41.572;23.732;2023-12-14T06:56:51;157.10;;;41.47;;
12776;SDS011;6452;41.572;23.732;2023-12-14T06:59:17;146.88;;;46.05;;
12776;SDS011;6452;41.572;23.732;2023-12-14T07:01:44;136.77;;;45.20;;
12776;SDS011;6452;41.572;23.732;2023-12-14T07:04:10;111.97;;;41.72;;
12776;SDS011;6452;41.572;23.732;2023-12-14T07:06:36;135.80;;;39.85;;
12776;SDS011;6452;41.572;23.732;2023-12-14T07:09:03;95.95;;;41.65;;
12776;SDS011;6452;41.572;23.732;2023-12-14T07:11:29;137.40;;;35.80;;
12776;SDS011;6452;41.572;23.732;2023-12-14T07:13:55;121.10;;;35.80;;
12776;SDS011;6452;41.572;23.732;2023-12-14T07:16:22;150.00;;;32.53;;
12776;SDS011;6452;41.572;23.732;2023-12-14T07:18:48;85.90;;;32.85;;
12776;SDS011;6452;41.572;23.732;2023-12-14T07:21:14;107.40;;;33.83;;
12776;SDS011;6452;41.572;23.732;2023-12-14T07:23:41;114.82;;;33.60;;
12776;SDS011;6452;41.572;23.732;2023-12-14T07:26:07;113.18;;;29.40;;
12776;SDS011;6452;41.572;23.732;2023-12-14T07:28:34;113.07;;;29.85;;
12776;SDS011;6452;41.572;23.732;2023-12-14T07:31:00;152.35;;;32.03;;
12776;SDS011;6452;41.572;23.732;2023-12-14T07:33:26;163.38;;;32.47;;
12776;SDS011;6452;41.572;23.732;2023-12-14T07:35:52;119.72;;;33.08;;
12776;SDS011;6452;41.572;23.732;2023-12-14T07:38:18;167.32;;;33.58;;
12776;SDS011;6452;41.572;23.732;2023-12-14T07:40:45;113.03;;;35.10;;
12776;SDS011;6452;41.572;23.732;2023-12-14T07:43:12;190.50;;;35.13;;
12776;SDS011;6452;41.572;23.732;2023-12-14T07:45:38;106.80;;;33.97;;
12776;SDS011;6452;41.572;23.732;2023-12-14T07:48:04;195.70;;;34.83;;
12776;SDS011;6452;41.572;23.732;2023-12-14T07:50:30;165.13;;;31.83;;
12776;SDS011;6452;41.572;23.732;2023-12-14T07:52:57;169.05;;;39.17;;
12776;SDS011;6452;41.572;23.732;2023-12-14T07:55:22;108.65;;;36.35;;
12776;SDS011;6452;41.572;23.732;2023-12-14T07:57:49;112.13;;;37.40;;
12776;SDS011;6452;41.572;23.732;2023-12-14T08:00:16;140.48;;;41.38;;
12776;SDS011;6452;41.572;23.732;2023-12-14T08:02:42;87.88;;;39.95;;
12776;SDS011;6452;41.572;23.732;2023-12-14T08:05:08;127.60;;;42.88;;
12776;SDS011;6452;41.572;23.732;2023-12-14T08:07:35;102.53;;;44.45;;
12776;SDS011;6452;41.572;23.732;2023-12-14T08:10:01;105.93;;;46.42;;
12776;SDS011;6452;41.572;23.732;2023-12-14T08:12:28;77.28;;;44.30;;
12776;SDS011;6452;41.572;23.732;2023-12-14T08:14:55;89.07;;;47.58;;
12776;SDS011;6452;41.572;23.732;2023-12-14T08:17:21;112.50;;;52.83;;
12776;SDS011;6452;41.572;23.732;2023-12-14T08:19:47;74.25;;;41.03;;
12776;SDS011;6452;41.572;23.732;2023-12-14T08:22:14;87.63;;;43.17;;
12776;SDS011;6452;41.572;23.732;2023-12-14T08:24:41;87.30;;;39.38;;
12776;SDS011;6452;41.572;23.732;2023-12-14T08:27:07;90.22;;;28.80;;
12776;SDS011;6452;41.572;23.732;2023-12-14T08:29:33;63.70;;;28.55;;
12776;SDS011;6452;41.572;23.732;2023-12-14T08:32:00;49.53;;;27.58;;
12776;SDS011;6452;41.572;23.732;2023-12-14T08:34:26;62.03;;;27.92;;
12776;SDS011;6452;41.572;23.732;2023-12-14T08:36:53;53.38;;;25.70;;
12776;SDS011;6452;41.572;23.732;2023-12-14T08:39:19;94.68;;;27.48;;
12776;SDS011;6452;41.572;23.732;2023-12-14T08:41:45;73.90;;;29.10;;
12776;SDS011;6452;41.572;23.732;2023-12-14T08:44:12;54.70;;;25.88;;
12776;SDS011;6452;41.572;23.732;2023-12-14T08:46:40;50.67;;;26.27;;
12776;SDS011;6452;41.572;23.732;2023-12-14T08:49:06;49.58;;;27.48;;
12776;SDS011;6452;41.572;23.732;2023-12-14T08:51:32;56.47;;;29.65;;
12776;SDS011;6452;41.572;23.732;2023-12-14T08:53:58;80.63;;;29.75;;
12776;SDS011;6452;41.572;23.732;2023-12-14T08:56:24;44.03;;;26.38;;
12776;SDS011;6452;41.572;23.732;2023-12-14T08:58:50;55.05;;;27.05;;
12776;SDS011;6452;41.572;23.732;2023-12-14T09:01:19;50.63;;;28.00;;
12776;SDS011;6452;41.572;23.732;2023-12-14T09:03:46;77.18;;;27.50;;
12776;SDS011;6452;41.572;23.732;2023-12-14T09:06:12;78.68;;;24.73;;
12776;SDS011;6452;41.572;23.732;2023-12-14T09:08:40;71.15;;;25.55;;
12776;SDS011;6452;41.572;23.732;2023-12-14T09:11:06;35.88;;;23.13;;
12776;SDS011;6452;41.572;23.732;2023-12-14T09:13:33;47.28;;;23.90;;
12776;SDS011;6452;41.572;23.732;2023-12-14T09:15:59;46.10;;;25.80;;
12776;SDS011;6452;41.572;23.732;2023-12-14T09:18:25;54.00;;;26.33;;
12776;SDS011;6452;41.572;23.732;2023-12-14T09:20:51;63.00;;;27.95;;
12776;SDS011;6452;41.572;23.732;2023-12-14T09:23:17;60.72;;;30.98;;
12776;SDS011;6452;41.572;23.732;2023-12-14T09:25:48;77.57;;;32.80;;
12776;SDS011;6452;41.572;23.732;2023-12-14T09:28:15;173.82;;;95.25;;
12776;SDS011;6452;41.572;23.732;2023-12-14T09:30:41;152.30;;;81.55;;
12776;SDS011;6452;41.572;23.732;2023-12-14T09:33:07;481.58;;;248.68;;
12776;SDS011;6452;41.572;23.732;2023-12-14T09:35:34;338.33;;;162.02;;
12776;SDS011;6452;41.572;23.732;2023-12-14T09:38:06;137.60;;;56.42;;
12776;SDS011;6452;41.572;23.732;2023-12-14T09:40:32;152.60;;;77.25;;
12776;SDS011;6452;41.572;23.732;2023-12-14T09:43:00;202.48;;;103.72;;
12776;SDS011;6452;41.572;23.732;2023-12-14T09:45:29;129.27;;;63.63;;
12776;SDS011;6452;41.572;23.732;2023-12-14T09:47:59;133.82;;;65.93;;
12776;SDS011;6452;41.572;23.732;2023-12-14T09:50:25;103.78;;;58.60;;
12776;SDS011;6452;41.572;23.732;2023-12-14T09:52:51;88.05;;;51.15;;
12776;SDS011;6452;41.572;23.732;2023-12-14T09:55:18;76.68;;;47.33;;
12776;SDS011;6452;41.572;23.732;2023-12-14T09:57:44;75.05;;;46.80;;
12776;SDS011;6452;41.572;23.732;2023-12-14T10:00:11;71.25;;;48.28;;
12776;SDS011;6452;41.572;23.732;2023-12-14T10:02:40;73.75;;;47.97;;
12776;SDS011;6452;41.572;23.732;2023-12-14T10:05:08;69.78;;;45.55;;
12776;SDS011;6452;41.572;23.732;2023-12-14T10:07:42;72.18;;;46.63;;
12776;SDS011;6452;41.572;23.732;2023-12-14T10:10:28;64.15;;;43.25;;
12776;SDS011;6452;41.572;23.732;2023-12-14T10:12:56;67.00;;;44.42;;
12776;SDS011;6452;41.572;23.732;2023-12-14T10:15:24;66.63;;;45.42;;
12776;SDS011;6452;41.572;23.732;2023-12-14T10:17:51;61.95;;;43.78;;
12776;SDS011;6452;41.572;23.732;2023-12-14T10:20:20;65.45;;;42.42;;
12776;SDS011;6452;41.572;23.732;2023-12-14T10:22:47;61.28;;;40.83;;
12776;SDS011;6452;41.572;23.732;2023-12-14T10:25:14;54.78;;;37.97;;
12776;SDS011;6452;41.572;23.732;2023-12-14T10:27:41;60.47;;;40.42;;
12776;SDS011;6452;41.572;23.732;2023-12-14T10:30:07;53.88;;;35.78;;
12776;SDS011;6452;41.572;23.732;2023-12-14T10:32:37;45.78;;;34.92;;
12776;SDS011;6452;41.572;23.732;2023-12-14T10:35:04;45.42;;;33.33;;
12776;SDS011;6452;41.572;23.732;2023-12-14T10:37:31;44.28;;;32.92;;
12776;SDS011;6452;41.572;23.732;2023-12-14T10:39:58;39.50;;;31.27;;
12776;SDS011;6452;41.572;23.732;2023-12-14T10:42:25;44.20;;;31.83;;
12776;SDS011;6452;41.572;23.732;2023-12-14T10:44:53;41.38;;;30.92;;
12776;SDS011;6452;41.572;23.732;2023-12-14T10:47:20;44.42;;;33.35;;
12776;SDS011;6452;41.572;23.732;2023-12-14T10:49:47;43.90;;;33.80;;
12776;SDS011;6452;41.572;23.732;2023-12-14T10:52:15;40.70;;;31.90;;
12776;SDS011;6452;41.572;23.732;2023-12-14T10:54:41;46.30;;;33.72;;
12776;SDS011;6452;41.572;23.732;2023-12-14T10:57:08;41.70;;;32.30;;
12776;SDS011;6452;41.572;23.732;2023-12-14T10:59:34;44.70;;;32.08;;
12776;SDS011;6452;41.572;23.732;2023-12-14T11:02:06;41.47;;;31.27;;
12776;SDS011;6452;41.572;23.732;2023-12-14T11:10:06;46.90;;;33.50;;
12776;SDS011;6452;41.572;23.732;2023-12-14T11:12:33;42.88;;;32.47;;
12776;SDS011;6452;41.572;23.732;2023-12-14T11:14:59;47.17;;;33.70;;
12776;SDS011;6452;41.572;23.732;2023-12-14T11:17:26;44.35;;;32.85;;
12776;SDS011;6452;41.572;23.732;2023-12-14T11:19:55;46.92;;;32.28;;
12776;SDS011;6452;41.572;23.732;2023-12-14T11:22:25;44.03;;;31.27;;
12776;SDS011;6452;41.572;23.732;2023-12-14T11:24:53;45.28;;;33.63;;
12776;SDS011;6452;41.572;23.732;2023-12-14T11:27:29;54.50;;;39.13;;
12776;SDS011;6452;41.572;23.732;2023-12-14T11:29:55;48.55;;;35.53;;
12776;SDS011;6452;41.572;23.732;2023-12-14T11:32:22;52.05;;;36.67;;
12776;SDS011;6452;41.572;23.732;2023-12-14T11:34:48;52.30;;;38.72;;
12776;SDS011;6452;41.572;23.732;2023-12-14T11:37:15;49.80;;;37.20;;
12776;SDS011;6452;41.572;23.732;2023-12-14T11:39:41;51.35;;;38.63;;
12776;SDS011;6452;41.572;23.732;2023-12-14T11:42:09;47.10;;;35.58;;
12776;SDS011;6452;41.572;23.732;2023-12-14T11:44:37;46.17;;;34.10;;
12776;SDS011;6452;41.572;23.732;2023-12-14T11:47:03;46.00;;;33.88;;
12776;SDS011;6452;41.572;23.732;2023-12-14T11:49:30;52.92;;;36.92;;
12776;SDS011;6452;41.572;23.732;2023-12-14T11:51:57;67.13;;;47.33;;
12776;SDS011;6452;41.572;23.732;2023-12-14T11:54:24;54.72;;;41.72;;
12776;SDS011;6452;41.572;23.732;2023-12-14T11:56:50;56.20;;;39.47;;
12776;SDS011;6452;41.572;23.732;2023-12-14T11:59:17;58.78;;;44.55;;
12776;SDS011;6452;41.572;23.732;2023-12-14T12:04:22;63.45;;;43.05;;
12776;SDS011;6452;41.572;23.732;2023-12-14T12:06:49;58.97;;;42.65;;
12776;SDS011;6452;41.572;23.732;2023-12-14T12:09:49;62.78;;;43.22;;
12776;SDS011;6452;41.572;23.732;2023-12-14T12:12:09;66.30;;;49.63;;
12776;SDS011;6452;41.572;23.732;2023-12-14T12:14:35;66.97;;;47.35;;
12776;SDS011;6452;41.572;23.732;2023-12-14T12:17:03;64.20;;;45.53;;
12776;SDS011;6452;41.572;23.732;2023-12-14T12:19:33;61.90;;;45.53;;
12776;SDS011;6452;41.572;23.732;2023-12-14T12:21:59;60.90;;;46.08;;
12776;SDS011;6452;41.572;23.732;2023-12-14T12:24:25;60.58;;;44.40;;
12776;SDS011;6452;41.572;23.732;2023-12-14T12:26:51;71.70;;;52.10;;
12776;SDS011;6452;41.572;23.732;2023-12-14T12:29:18;72.03;;;53.47;;
12776;SDS011;6452;41.572;23.732;2023-12-14T12:31:44;68.57;;;51.67;;
12776;SDS011;6452;41.572;23.732;2023-12-14T12:34:11;199.18;;;125.40;;
12776;SDS011;6452;41.572;23.732;2023-12-14T12:36:37;75.00;;;52.08;;
12776;SDS011;6452;41.572;23.732;2023-12-14T12:39:03;74.88;;;52.53;;
12776;SDS011;6452;41.572;23.732;2023-12-14T12:41:32;71.60;;;50.78;;
12776;SDS011;6452;41.572;23.732;2023-12-14T12:43:58;66.90;;;51.00;;
12776;SDS011;6452;41.572;23.732;2023-12-14T12:46:31;63.55;;;47.25;;
12776;SDS011;6452;41.572;23.732;2023-12-14T12:48:58;67.88;;;47.97;;
12776;SDS011;6452;41.572;23.732;2023-12-14T12:51:25;68.63;;;48.20;;
12776;SDS011;6452;41.572;23.732;2023-12-14T12:53:53;74.28;;;52.03;;
12776;SDS011;6452;41.572;23.732;2023-12-14T12:56:19;72.25;;;54.22;;
12776;SDS011;6452;41.572;23.732;2023-12-14T12:58:45;61.08;;;44.90;;
12776;SDS011;6452;41.572;23.732;2023-12-14T13:01:12;61.60;;;43.17;;
12776;SDS011;6452;41.572;23.732;2023-12-14T13:03:38;55.47;;;39.85;;
12776;SDS011;6452;41.572;23.732;2023-12-14T13:06:04;51.70;;;39.00;;
12776;SDS011;6452;41.572;23.732;2023-12-14T13:08:30;48.95;;;36.83;;
12776;SDS011;6452;41.572;23.732;2023-12-14T13:10:56;41.80;;;32.65;;
12776;SDS011;6452;41.572;23.732;2023-12-14T13:13:23;40.40;;;31.17;;
12776;SDS011;6452;41.572;23.732;2023-12-14T13:15:49;48.20;;;37.03;;
12776;SDS011;6452;41.572;23.732;2023-12-14T13:18:15;54.80;;;39.60;;
12776;SDS011;6452;41.572;23.732;2023-12-14T13:20:42;71.43;;;56.55;;
12776;SDS011;6452;41.572;23.732;2023-12-14T13:23:08;82.55;;;58.13;;
12776;SDS011;6452;41.572;23.732;2023-12-14T13:25:34;49.90;;;39.10;;
12776;SDS011;6452;41.572;23.732;2023-12-14T13:28:00;43.85;;;32.65;;
12776;SDS011;6452;41.572;23.732;2023-12-14T13:30:29;55.28;;;42.47;;
12776;SDS011;6452;41.572;23.732;2023-12-14T13:32:56;64.43;;;43.60;;
12776;SDS011;6452;41.572;23.732;2023-12-14T13:35:22;48.30;;;38.95;;
12776;SDS011;6452;41.572;23.732;2023-12-14T13:37:50;53.13;;;36.88;;
12776;SDS011;6452;41.572;23.732;2023-12-14T13:40:16;38.95;;;31.27;;
12776;SDS011;6452;41.572;23.732;2023-12-14T13:42:42;38.08;;;30.27;;
12776;SDS011;6452;41.572;23.732;2023-12-14T13:45:08;35.63;;;28.33;;
12776;SDS011;6452;41.572;23.732;2023-12-14T13:47:36;36.03;;;28.17;;
12776;SDS011;6452;41.572;23.732;2023-12-14T13:50:02;36.75;;;29.63;;
12776;SDS011;6452;41.572;23.732;2023-12-14T13:52:30;33.85;;;26.90;;
12776;SDS011;6452;41.572;23.732;2023-12-14T13:54:56;31.92;;;26.05;;
12776;SDS011;6452;41.572;23.732;2023-12-14T13:57:24;33.08;;;26.35;;
12776;SDS011;6452;41.572;23.732;2023-12-14T13:59:50;34.63;;;26.00;;
12776;SDS011;6452;41.572;23.732;2023-12-14T14:02:16;31.95;;;26.17;;
12776;SDS011;6452;41.572;23.732;2023-12-14T14:04:43;35.83;;;26.23;;
12776;SDS011;6452;41.572;23.732;2023-12-14T14:07:09;30.85;;;25.65;;
12776;SDS011;6452;41.572;23.732;2023-12-14T14:09:35;34.03;;;27.27;;
12776;SDS011;6452;41.572;23.732;2023-12-14T14:12:02;35.78;;;28.85;;
12776;SDS011;6452;41.572;23.732;2023-12-14T14:14:29;41.65;;;29.98;;
12776;SDS011;6452;41.572;23.732;2023-12-14T14:16:56;44.28;;;32.30;;
12776;SDS011;6452;41.572;23.732;2023-12-14T14:19:22;47.30;;;33.33;;
12776;SDS011;6452;41.572;23.732;2023-12-14T14:21:49;64.90;;;47.65;;
12776;SDS011;6452;41.572;23.732;2023-12-14T14:24:15;55.13;;;39.70;;
12776;SDS011;6452;41.572;23.732;2023-12-14T14:26:41;48.08;;;36.60;;